createdAt,value
2023-05-04T15:46:32.820Z,29.30
2023-05-04T15:49:00.598Z,28.83
2023-05-04T15:51:31.308Z,30.55
2023-05-04T15:53:59.484Z,27.65
2023-05-04T15:56:27.451Z,32.30
2023-05-04T15:58:55.327Z,29.10
2023-05-04T16:01:23.203Z,33.25
2023-05-04T16:03:51.200Z,31.10
2023-05-04T16:06:18.925Z,26.02
2023-05-04T16:08:46.734Z,27.95
2023-05-04T16:11:14.616Z,19.58
2023-05-04T16:13:42.200Z,25.90
2023-05-04T16:16:10.483Z,22.80
2023-05-04T16:18:38.704Z,27.58
2023-05-04T16:21:06.629Z,26.80
2023-05-04T16:23:34.209Z,32.00
2023-05-04T16:26:02.042Z,27.15
2023-05-04T16:28:29.889Z,25.90
2023-05-04T16:30:58.886Z,22.30
2023-05-04T16:33:27.766Z,31.08
2023-05-04T16:35:55.808Z,29.95
2023-05-04T16:38:23.553Z,21.40
2023-05-04T16:40:51.214Z,23.67
2023-05-04T16:43:18.995Z,23.10
2023-05-04T16:45:46.885Z,22.58
2023-05-04T16:48:14.854Z,19.38
2023-05-04T16:50:43.026Z,18.75
2023-05-04T16:53:12.097Z,15.45
2023-05-04T16:55:41.332Z,19.33
2023-05-04T16:58:09.286Z,11.27
2023-05-04T17:00:37.296Z,14.20
2023-05-04T17:03:05.660Z,10.50
2023-05-04T17:05:33.560Z,11.85
2023-05-04T17:08:01.567Z,9.27
2023-05-04T17:10:29.867Z,7.82
2023-05-04T17:12:58.495Z,3.95
2023-05-04T17:15:27.815Z,4.20
2023-05-04T17:17:57.174Z,9.52
2023-05-04T17:20:29.413Z,4.85
2023-05-04T17:23:00.315Z,4.63
2023-05-04T17:25:28.473Z,4.20
2023-05-04T17:27:56.221Z,5.55
2023-05-04T17:30:24.636Z,2.17
2023-05-04T17:32:54.808Z,5.57
2023-05-04T17:35:26.193Z,3.15
2023-05-04T17:37:57.966Z,4.67
2023-05-04T17:40:28.392Z,3.45
2023-05-04T17:42:57.243Z,5.43
2023-05-04T17:45:25.096Z,5.05
2023-05-04T17:47:53.372Z,3.75
2023-05-04T17:50:21.833Z,3.88
2023-05-04T17:52:53.929Z,2.92
2023-05-04T17:55:24.116Z,3.95
2023-05-04T17:57:54.358Z,6.22
2023-05-04T18:00:23.514Z,3.03
2023-05-04T18:02:52.033Z,4.32
2023-05-04T18:05:20.124Z,3.00
2023-05-04T18:07:48.157Z,1.95
2023-05-04T18:10:15.791Z,2.65
2023-05-04T18:12:43.339Z,2.00
2023-05-04T18:15:11.405Z,3.38
2023-05-04T18:17:39.373Z,1.80
2023-05-04T18:20:09.583Z,1.88
2023-05-04T18:22:37.465Z,4.40
2023-05-04T18:25:05.563Z,3.00
2023-05-04T18:27:34.672Z,5.07
2023-05-04T18:30:03.989Z,3.63
2023-05-04T18:32:31.886Z,3.00
2023-05-04T18:34:59.850Z,2.95
2023-05-04T18:37:32.043Z,5.35
2023-05-04T18:40:00.316Z,4.80
2023-05-04T18:42:28.297Z,3.47
2023-05-04T18:44:56.751Z,4.05
2023-05-04T18:47:27.567Z,2.63
2023-05-04T18:49:56.917Z,2.67
2023-05-04T18:52:24.520Z,5.35
2023-05-04T18:54:52.619Z,5.53
2023-05-04T18:57:20.192Z,5.55
2023-05-04T18:59:47.880Z,4.32
2023-05-04T19:02:15.955Z,2.17
2023-05-04T19:04:43.575Z,4.30
2023-05-04T19:07:11.207Z,4.70
2023-05-04T19:09:38.619Z,6.50
2023-05-04T19:12:06.685Z,4.10
2023-05-04T19:14:34.278Z,5.68
2023-05-04T19:17:02.787Z,4.10
2023-05-04T19:19:31.231Z,3.10
2023-05-04T19:21:59.310Z,4.25
2023-05-04T19:24:26.964Z,3.33
2023-05-04T19:26:54.837Z,5.95
2023-05-04T19:29:25.525Z,5.82
2023-05-04T19:31:52.869Z,6.93
2023-05-04T19:34:20.291Z,5.10
2023-05-04T19:36:48.058Z,3.42
2023-05-04T19:39:17.204Z,6.30
2023-05-04T19:41:49.355Z,5.07
2023-05-04T19:44:17.158Z,5.78
2023-05-04T19:46:45.971Z,5.05
2023-05-04T19:49:13.906Z,4.53
2023-05-04T19:51:41.320Z,3.90
2023-05-04T19:54:11.235Z,3.38
2023-05-04T19:56:42.365Z,4.32
2023-05-04T19:59:09.695Z,5.00
2023-05-04T20:01:37.161Z,3.60
2023-05-04T20:04:06.390Z,4.00
2023-05-04T20:06:33.758Z,8.20
2023-05-04T20:09:01.388Z,6.07
2023-05-04T20:11:31.452Z,3.47
2023-05-04T20:13:58.916Z,4.00
2023-05-04T20:16:26.498Z,4.72
2023-05-04T20:18:54.080Z,7.18
2023-05-04T20:21:21.552Z,2.40
2023-05-04T20:23:49.378Z,2.40
2023-05-04T20:26:17.576Z,4.88
2023-05-04T20:28:53.338Z,3.13
2023-05-04T20:31:20.948Z,2.90
2023-05-04T20:33:48.232Z,2.67
2023-05-04T20:36:15.447Z,3.67
2023-05-04T20:38:42.810Z,3.55
2023-05-04T20:41:10.513Z,4.03
2023-05-04T20:43:37.909Z,3.33
2023-05-04T20:46:05.317Z,6.43
2023-05-04T20:48:32.887Z,6.13
2023-05-04T20:51:13.401Z,2.53
2023-05-04T20:53:42.191Z,4.75
2023-05-04T20:56:10.381Z,5.25
2023-05-04T20:58:37.510Z,3.40
2023-05-04T21:01:05.832Z,3.58
2023-05-04T21:03:33.735Z,2.45
2023-05-04T21:06:02.582Z,4.80
2023-05-04T21:08:29.844Z,5.63
2023-05-04T21:10:57.269Z,4.22
2023-05-04T21:13:24.664Z,3.65
2023-05-04T21:15:52.497Z,3.63
2023-05-04T21:18:20.096Z,6.60
2023-05-04T21:20:47.453Z,2.67
2023-05-04T21:23:14.921Z,6.15
2023-05-04T21:25:42.139Z,3.33
2023-05-04T21:28:09.761Z,3.55
2023-05-04T21:30:40.696Z,3.53
2023-05-04T21:33:08.101Z,3.22
2023-05-04T21:35:35.460Z,3.70
2023-05-04T21:38:02.776Z,4.82
2023-05-04T21:40:30.011Z,6.38
2023-05-04T21:42:57.260Z,3.28
2023-05-04T21:45:24.474Z,6.20
2023-05-04T21:47:52.069Z,2.90
2023-05-04T21:50:19.283Z,4.70
2023-05-04T21:52:46.628Z,4.40
2023-05-04T21:55:13.894Z,4.60
2023-05-04T21:57:41.383Z,3.28
2023-05-04T22:00:12.791Z,4.90
2023-05-04T22:02:40.118Z,2.35
2023-05-04T22:05:07.813Z,2.38
2023-05-04T22:07:36.600Z,4.88
2023-05-04T22:10:05.160Z,2.58
2023-05-04T22:12:32.412Z,3.75
2023-05-04T22:14:59.636Z,1.85
2023-05-04T22:17:27.192Z,3.58
2023-05-04T22:19:54.503Z,5.35
2023-05-04T22:22:21.764Z,5.30
2023-05-04T22:24:49.043Z,2.55
2023-05-04T22:27:16.451Z,1.35
2023-05-04T22:29:43.760Z,3.88
2023-05-04T22:32:11.103Z,6.38
2023-05-04T22:34:38.290Z,2.15
2023-05-04T22:37:05.503Z,4.07
2023-05-04T22:39:32.795Z,3.05
2023-05-04T22:42:00.227Z,3.50
2023-05-04T22:44:27.426Z,2.38
2023-05-04T22:46:54.594Z,2.13
2023-05-04T22:49:21.783Z,4.85
2023-05-04T22:51:49.056Z,2.88
2023-05-04T22:54:16.378Z,2.03
2023-05-04T22:56:43.569Z,4.57
2023-05-04T22:59:10.868Z,3.08
2023-05-04T23:01:43.012Z,4.00
2023-05-04T23:04:11.723Z,5.45
2023-05-04T23:06:39.456Z,3.75
2023-05-04T23:09:06.815Z,3.90
2023-05-04T23:11:34.038Z,3.70
2023-05-04T23:14:01.423Z,5.78
2023-05-04T23:16:28.668Z,2.25
2023-05-04T23:18:56.215Z,4.95
2023-05-04T23:21:23.407Z,3.58
2023-05-04T23:23:52.359Z,6.03
2023-05-04T23:26:19.629Z,3.15
2023-05-04T23:28:46.861Z,3.70
2023-05-04T23:31:14.082Z,5.70
2023-05-04T23:33:42.095Z,2.30
2023-05-04T23:36:09.410Z,5.35
2023-05-04T23:38:36.869Z,2.20
2023-05-04T23:41:04.680Z,3.67
2023-05-04T23:43:32.292Z,1.77
2023-05-04T23:46:01.458Z,6.10
2023-05-04T23:48:29.799Z,3.70
2023-05-04T23:50:59.091Z,1.80
2023-05-04T23:53:26.633Z,2.80
2023-05-04T23:56:01.938Z,4.47
2023-05-04T23:58:31.797Z,1.75
